Time;durP1;ratioP1;P1;durP2;ratioP2;P2;SDS_P1;SDS_P2;PMS_P1;PMS_P2;Temp;Humidity;BMP_temperature;BMP_pressure;BME280_temperature;BME280_humidity;BME280_pressure;Samples;Min_cycle;Max_cycle;Signal;HPM_P1;HPM_P2
2022/05/11 00:01:29;;;;;;;;;;;23.30;38.70;;;;;;8270805;28;20346;-47
2022/05/11 00:05:29;;;;;;;;;;;23.30;38.70;;;;;;8270833;28;20010;-48
2022/05/11 00:09:30;;;;;;;;;;;23.20;38.70;;;;;;8270033;28;20308;-47
2022/05/11 00:13:31;;;;;;;;;;;23.20;38.70;;;;;;8270425;28;20286;-47
2022/05/11 00:17:31;;;;;;;;;;;23.20;38.70;;;;;;8270572;28;19920;-46
2022/05/11 00:21:32;;;;;;;;;;;23.20;38.70;;;;;;8269907;28;19918;-46
2022/05/11 00:25:32;;;;;;;;;;;23.20;38.70;;;;;;8270423;28;20367;-48
2022/05/11 00:29:34;;;;;;;;;;;23.20;38.70;;;;;;8269028;28;20071;-48
2022/05/11 00:33:35;;;;;;;;;;;23.20;38.80;;;;;;8269536;28;19976;-47
2022/05/11 00:37:35;;;;;;;;;;;23.20;38.80;;;;;;8270053;28;19914;-46
2022/05/11 00:41:39;;;;;;;;;;;23.20;38.80;;;;;;8269732;28;20387;-49
2022/05/11 00:45:46;;;;;;;;;;;23.20;38.80;;;;;;8269133;28;19918;-47
2022/05/11 00:49:50;;;;;;;;;;;23.20;38.80;;;;;;8269423;28;19940;-47
2022/05/11 00:53:53;;;;;;;;;;;23.20;38.80;;;;;;8268970;28;20383;-48
2022/05/11 00:58:15;;;;;;;;;;;23.20;38.80;;;;;;8269302;28;20327;-49
2022/05/11 01:02:16;;;;;;;;;;;23.20;38.80;;;;;;8268487;28;19926;-47
2022/05/11 01:06:17;;;;;;;;;;;23.20;38.80;;;;;;8267651;28;19929;-49
2022/05/11 01:10:17;;;;;;;;;;;23.10;38.80;;;;;;8269210;28;19936;-51
2022/05/11 01:14:21;;;;;;;;;;;23.10;38.80;;;;;;8268647;28;19973;-47
2022/05/11 01:18:24;;;;;;;;;;;23.10;38.80;;;;;;8268138;28;19941;-47
2022/05/11 01:22:29;;;;;;;;;;;23.10;38.80;;;;;;8268295;28;20297;-47
2022/05/11 01:26:33;;;;;;;;;;;23.10;38.80;;;;;;8268334;28;19917;-48
2022/05/11 01:30:35;;;;;;;;;;;23.10;38.80;;;;;;8267810;28;19925;-48
2022/05/11 01:34:35;;;;;;;;;;;23.00;38.80;;;;;;8268087;28;20419;-47
2022/05/11 01:38:41;;;;;;;;;;;23.00;38.80;;;;;;8267894;28;19964;-46
2022/05/11 01:42:41;;;;;;;;;;;23.00;38.80;;;;;;8267650;28;19921;-46
2022/05/11 01:46:48;;;;;;;;;;;23.00;38.80;;;;;;8267883;28;20272;-46
2022/05/11 01:50:48;;;;;;;;;;;23.00;38.80;;;;;;8267270;28;19926;-48
2022/05/11 01:54:49;;;;;;;;;;;23.00;38.80;;;;;;8267727;28;20310;-48
2022/05/11 01:58:50;;;;;;;;;;;23.00;38.90;;;;;;8267353;28;19996;-48
2022/05/11 02:02:50;;;;;;;;;;;23.00;38.90;;;;;;8266039;28;19922;-46
2022/05/11 02:11:11;;;;;;;;;;;23.00;38.90;;;;;;8265968;28;19961;-46
2022/05/11 02:15:13;;;;;;;;;;;22.90;38.90;;;;;;8266660;28;19925;-47
2022/05/11 02:19:14;;;;;;;;;;;22.90;38.80;;;;;;8264997;28;19940;-47
2022/05/11 02:23:15;;;;;;;;;;;22.90;38.90;;;;;;8266684;28;20009;-48
2022/05/11 02:27:16;;;;;;;;;;;22.90;38.90;;;;;;8266094;28;20315;-51
2022/05/11 02:31:16;;;;;;;;;;;22.90;38.90;;;;;;8266490;28;19929;-51
2022/05/11 02:35:17;;;;;;;;;;;22.90;38.90;;;;;;8266434;28;19952;-48
2022/05/11 02:39:18;;;;;;;;;;;22.90;38.90;;;;;;8265594;28;19918;-47
2022/05/11 02:43:18;;;;;;;;;;;22.90;38.90;;;;;;8266193;28;20425;-46
2022/05/11 02:47:19;;;;;;;;;;;22.90;38.90;;;;;;8266001;28;20052;-46
2022/05/11 02:51:19;;;;;;;;;;;22.90;38.90;;;;;;8265304;28;19930;-47
2022/05/11 02:55:20;;;;;;;;;;;22.90;38.90;;;;;;8265724;28;20375;-47
2022/05/11 02:59:20;;;;;;;;;;;22.90;38.90;;;;;;8265543;28;19925;-46
2022/05/11 03:03:21;;;;;;;;;;;22.80;38.90;;;;;;8265541;28;19922;-45
2022/05/11 03:07:22;;;;;;;;;;;22.80;38.90;;;;;;8265037;28;20315;-47
2022/05/11 03:11:22;;;;;;;;;;;22.80;38.90;;;;;;8265190;28;19976;-46
2022/05/11 03:15:23;;;;;;;;;;;22.80;38.90;;;;;;8264894;28;19918;-49
2022/05/11 03:19:23;;;;;;;;;;;22.80;38.90;;;;;;8265528;28;19914;-46
2022/05/11 03:23:25;;;;;;;;;;;22.80;38.90;;;;;;8265423;28;19925;-47
2022/05/11 03:27:26;;;;;;;;;;;22.80;38.90;;;;;;8264637;28;19945;-47
2022/05/11 03:31:26;;;;;;;;;;;22.80;38.90;;;;;;8264961;28;19969;-47
2022/05/11 03:35:27;;;;;;;;;;;22.80;38.90;;;;;;8265105;28;19937;-47
2022/05/11 03:39:27;;;;;;;;;;;22.80;38.90;;;;;;8264507;28;19918;-47
2022/05/11 03:43:29;;;;;;;;;;;22.80;38.90;;;;;;8265136;28;20433;-46
2022/05/11 03:47:29;;;;;;;;;;;22.80;38.90;;;;;;8264962;28;19925;-46
2022/05/11 03:51:30;;;;;;;;;;;22.80;38.90;;;;;;8264650;28;20292;-45
2022/05/11 03:55:30;;;;;;;;;;;22.80;38.90;;;;;;8264651;28;19914;-47
2022/05/11 03:59:31;;;;;;;;;;;22.80;38.90;;;;;;8264625;28;20298;-46
2022/05/11 04:03:31;;;;;;;;;;;22.80;38.90;;;;;;8264199;28;19991;-47
2022/05/11 04:07:33;;;;;;;;;;;22.70;38.90;;;;;;8263693;28;19960;-46
2022/05/11 04:11:33;;;;;;;;;;;22.80;38.90;;;;;;8264316;28;20339;-47
2022/05/11 04:15:34;;;;;;;;;;;22.70;38.90;;;;;;8263996;28;20540;-46
2022/05/11 04:19:35;;;;;;;;;;;22.70;38.90;;;;;;8264545;28;20032;-46
2022/05/11 04:23:36;;;;;;;;;;;22.80;38.90;;;;;;8264557;28;19917;-44
2022/05/11 04:27:37;;;;;;;;;;;22.80;38.90;;;;;;8263783;28;20363;-47
2022/05/11 04:31:37;;;;;;;;;;;22.70;38.90;;;;;;8264041;28;19968;-48
2022/05/11 04:35:38;;;;;;;;;;;22.70;38.80;;;;;;8266984;28;19924;-47
2022/05/11 04:39:39;;;;;;;;;;;22.70;38.90;;;;;;8269249;28;19926;-46
2022/05/11 04:43:40;;;;;;;;;;;22.70;38.80;;;;;;8270018;28;19924;-47
2022/05/11 04:47:40;;;;;;;;;;;22.70;38.90;;;;;;8269639;28;19918;-48
2022/05/11 04:51:41;;;;;;;;;;;22.70;38.80;;;;;;8268826;28;19932;-49
2022/05/11 04:55:41;;;;;;;;;;;22.70;38.80;;;;;;8269578;28;20326;-47
2022/05/11 04:59:42;;;;;;;;;;;22.70;38.90;;;;;;8269076;28;19918;-47
2022/05/11 05:03:42;;;;;;;;;;;22.70;38.90;;;;;;8268740;28;19976;-48
2022/05/11 05:07:43;;;;;;;;;;;22.70;38.90;;;;;;8268907;28;19918;-46
2022/05/11 05:11:43;;;;;;;;;;;22.70;38.90;;;;;;8268821;28;19922;-47
2022/05/11 05:15:44;;;;;;;;;;;22.70;38.90;;;;;;8268456;28;19925;-50
2022/05/11 05:19:45;;;;;;;;;;;22.70;38.90;;;;;;8268542;28;19956;-47
2022/05/11 05:23:45;;;;;;;;;;;22.70;38.90;;;;;;8268241;28;19925;-46
2022/05/11 05:27:48;;;;;;;;;;;22.70;39.00;;;;;;8268812;28;19961;-47
2022/05/11 05:31:49;;;;;;;;;;;22.70;38.90;;;;;;8268173;28;19933;-46
2022/05/11 05:35:49;;;;;;;;;;;22.60;38.90;;;;;;8267537;28;19961;-51
2022/05/11 05:39:49;;;;;;;;;;;22.70;38.90;;;;;;8267797;28;20379;-46
2022/05/11 05:43:50;;;;;;;;;;;22.70;38.90;;;;;;8267968;28;19925;-47
2022/05/11 05:47:50;;;;;;;;;;;22.60;38.90;;;;;;8266866;28;19964;-46
2022/05/11 05:51:51;;;;;;;;;;;22.60;39.10;;;;;;8267343;28;19933;-47
2022/05/11 05:55:51;;;;;;;;;;;22.60;38.90;;;;;;8267336;28;19914;-48
2022/05/11 05:59:52;;;;;;;;;;;22.60;38.90;;;;;;8267050;28;20264;-49
2022/05/11 06:03:53;;;;;;;;;;;22.60;38.90;;;;;;8267513;28;19928;-46
2022/05/11 06:07:53;;;;;;;;;;;22.60;38.90;;;;;;8266921;28;19925;-46
2022/05/11 06:11:53;;;;;;;;;;;22.60;39.00;;;;;;8266359;28;19922;-48
2022/05/11 06:15:55;;;;;;;;;;;22.60;39.00;;;;;;8266637;28;20271;-47
2022/05/11 06:19:55;;;;;;;;;;;22.60;39.00;;;;;;8266796;28;19918;-47
2022/05/11 06:23:56;;;;;;;;;;;22.60;39.00;;;;;;8266023;28;20287;-47
2022/05/11 06:27:58;;;;;;;;;;;22.60;39.00;;;;;;8266544;28;19987;-47
2022/05/11 06:31:58;;;;;;;;;;;22.60;39.00;;;;;;8266063;28;19932;-47
2022/05/11 06:35:59;;;;;;;;;;;22.60;39.00;;;;;;8265560;28;19918;-47
2022/05/11 06:40:00;;;;;;;;;;;22.60;39.00;;;;;;8266474;28;20000;-47
2022/05/11 06:44:02;;;;;;;;;;;22.60;38.90;;;;;;8266155;28;19925;-47
2022/05/11 06:48:02;;;;;;;;;;;22.70;38.90;;;;;;8265274;28;19914;-46
2022/05/11 06:52:03;;;;;;;;;;;22.70;38.90;;;;;;8265942;28;19945;-47
2022/05/11 07:00:22;;;;;;;;;;;22.70;38.80;;;;;;8265807;28;20288;-46
2022/05/11 07:04:24;;;;;;;;;;;22.70;38.80;;;;;;8265888;28;19922;-47
2022/05/11 07:08:24;;;;;;;;;;;22.70;38.70;;;;;;8265071;28;20462;-46
2022/05/11 07:12:35;;;;;;;;;;;22.70;38.70;;;;;;8263790;28;19924;-47
2022/05/11 07:16:36;;;;;;;;;;;22.80;38.60;;;;;;8265185;28;19913;-47
2022/05/11 07:20:36;;;;;;;;;;;22.80;38.60;;;;;;8265164;28;20000;-47
2022/05/11 07:24:38;;;;;;;;;;;22.80;38.60;;;;;;8264828;28;19918;-46
2022/05/11 07:28:40;;;;;;;;;;;22.80;38.60;;;;;;8264864;28;20382;-46
2022/05/11 07:32:41;;;;;;;;;;;22.80;38.70;;;;;;8264949;28;19914;-47
2022/05/11 07:36:41;;;;;;;;;;;22.80;39.20;;;;;;8264306;28;19918;-48
2022/05/11 07:40:42;;;;;;;;;;;22.80;38.70;;;;;;8264722;28;20299;-47
2022/05/11 07:44:42;;;;;;;;;;;22.80;38.80;;;;;;8265026;28;19941;-46
2022/05/11 07:48:43;;;;;;;;;;;22.80;38.70;;;;;;8264165;28;19932;-46
2022/05/11 07:52:44;;;;;;;;;;;22.80;38.70;;;;;;8264792;28;19965;-46
2022/05/11 08:01:03;;;;;;;;;;;22.80;38.70;;;;;;8272020;28;19929;-51
2022/05/11 08:05:06;;;;;;;;;;;22.90;38.80;;;;;;8264542;28;20359;-48
2022/05/11 08:09:07;;;;;;;;;;;22.80;38.80;;;;;;8265765;28;20494;-49
2022/05/11 08:13:08;;;;;;;;;;;22.90;38.80;;;;;;8270496;28;19918;-51
2022/05/11 08:17:08;;;;;;;;;;;22.90;38.80;;;;;;8270437;28;20015;-51
2022/05/11 08:21:09;;;;;;;;;;;22.80;38.80;;;;;;8269798;28;19969;-48
2022/05/11 08:25:10;;;;;;;;;;;22.90;38.90;;;;;;8270712;28;19957;-48
2022/05/11 08:29:11;;;;;;;;;;;22.90;38.90;;;;;;8270210;28;19932;-47
2022/05/11 08:33:24;;;;;;;;;;;22.90;38.90;;;;;;8269647;28;20367;-49
2022/05/11 08:37:26;;;;;;;;;;;22.90;38.90;;;;;;8269884;28;19918;-47
2022/05/11 08:41:32;;;;;;;;;;;22.90;38.90;;;;;;8269637;28;19926;-48
2022/05/11 08:45:40;;;;;;;;;;;22.90;38.90;;;;;;8269536;28;19918;-46
2022/05/11 08:49:52;;;;;;;;;;;22.90;38.90;;;;;;8269623;28;20347;-45
2022/05/11 08:53:59;;;;;;;;;;;22.90;38.90;;;;;;8269587;28;19918;-44
2022/05/11 08:58:04;;;;;;;;;;;23.00;39.00;;;;;;8269296;28;19944;-45
2022/05/11 09:02:05;;;;;;;;;;;22.90;38.90;;;;;;8269076;28;19922;-45
2022/05/11 09:06:10;;;;;;;;;;;23.00;39.00;;;;;;8268763;28;19921;-46
2022/05/11 09:10:15;;;;;;;;;;;23.00;39.00;;;;;;8268771;28;20450;-45
2022/05/11 09:14:18;;;;;;;;;;;23.00;39.00;;;;;;8268598;28;19965;-45
2022/05/11 09:18:19;;;;;;;;;;;23.00;38.90;;;;;;8268151;28;20357;-46
2022/05/11 09:22:24;;;;;;;;;;;23.00;38.90;;;;;;8268046;28;20377;-46
2022/05/11 09:26:29;;;;;;;;;;;23.10;39.00;;;;;;8268315;28;20012;-47
2022/05/11 09:30:30;;;;;;;;;;;23.10;39.00;;;;;;8267971;28;20304;-46
2022/05/11 09:34:36;;;;;;;;;;;23.10;38.90;;;;;;8268210;28;19917;-46
2022/05/11 09:38:43;;;;;;;;;;;23.10;38.90;;;;;;8267818;28;19968;-52
2022/05/11 09:43:03;;;;;;;;;;;23.20;38.90;;;;;;8267457;28;19917;-49
2022/05/11 09:47:21;;;;;;;;;;;23.20;38.90;;;;;;8267611;28;20256;-47
2022/05/11 09:51:23;;;;;;;;;;;23.20;38.80;;;;;;8267254;28;19972;-49
2022/05/11 09:55:28;;;;;;;;;;;23.20;39.30;;;;;;8267543;28;20375;-47
2022/05/11 09:59:31;;;;;;;;;;;23.20;38.80;;;;;;8267223;28;20295;-50
2022/05/11 10:03:31;;;;;;;;;;;23.30;38.80;;;;;;8266532;28;19961;-47
2022/05/11 10:07:36;;;;;;;;;;;23.30;38.80;;;;;;8266366;28;19960;-49
2022/05/11 10:11:40;;;;;;;;;;;23.30;38.80;;;;;;8266793;28;19926;-46
2022/05/11 10:24:19;;;;;;;;;;;23.40;38.80;;;;;;8266186;28;20287;-48
2022/05/11 10:28:20;;;;;;;;;;;23.40;38.70;;;;;;8266628;28;19918;-49
2022/05/11 10:32:24;;;;;;;;;;;23.40;38.80;;;;;;8265482;28;19914;-47
2022/05/11 10:36:32;;;;;;;;;;;23.40;38.70;;;;;;8266021;28;19918;-47
2022/05/11 10:40:40;;;;;;;;;;;23.40;38.70;;;;;;8266091;28;19945;-50
2022/05/11 10:45:00;;;;;;;;;;;23.50;38.70;;;;;;8265952;28;19914;-45
2022/05/11 10:49:14;;;;;;;;;;;23.50;38.60;;;;;;8265419;28;19933;-47
2022/05/11 10:53:34;;;;;;;;;;;23.50;38.60;;;;;;8265908;28;19960;-47
2022/05/11 10:57:41;;;;;;;;;;;23.60;38.60;;;;;;8265231;28;20290;-47
2022/05/11 11:01:45;;;;;;;;;;;23.60;38.60;;;;;;8265798;28;20000;-49
2022/05/11 11:10:23;;;;;;;;;;;23.60;38.50;;;;;;8265538;28;19933;-49
2022/05/11 11:14:35;;;;;;;;;;;23.70;38.50;;;;;;8265242;28;19917;-47
2022/05/11 11:18:38;;;;;;;;;;;23.70;38.50;;;;;;8264766;28;19925;-47
2022/05/11 11:22:57;;;;;;;;;;;23.70;38.50;;;;;;8265308;28;20028;-46
2022/05/11 11:26:59;;;;;;;;;;;23.70;38.40;;;;;;8264864;28;20406;-49
2022/05/11 11:30:59;;;;;;;;;;;23.70;38.40;;;;;;8265247;28;19977;-48
2022/05/11 11:35:18;;;;;;;;;;;23.80;38.40;;;;;;8264957;28;19918;-47
2022/05/11 11:39:37;;;;;;;;;;;23.80;38.40;;;;;;8264385;28;20441;-50
2022/05/11 11:43:41;;;;;;;;;;;23.80;38.30;;;;;;8266089;28;19925;-47
2022/05/11 11:48:00;;;;;;;;;;;23.80;38.30;;;;;;8271355;28;20395;-46
2022/05/11 11:52:02;;;;;;;;;;;23.80;38.30;;;;;;8271684;28;19926;-46
2022/05/11 11:56:22;;;;;;;;;;;23.90;38.30;;;;;;8271079;28;20402;-46
2022/05/11 12:00:29;;;;;;;;;;;23.90;38.30;;;;;;8270497;28;19918;-47
2022/05/11 12:04:35;;;;;;;;;;;23.90;38.20;;;;;;8271158;28;19965;-46
2022/05/11 12:17:23;;;;;;;;;;;24.00;38.20;;;;;;8270393;28;19964;-47
2022/05/11 12:21:26;;;;;;;;;;;24.00;38.20;;;;;;8269930;28;20317;-46
2022/05/11 12:25:29;;;;;;;;;;;24.00;38.10;;;;;;8270136;28;19922;-49
2022/05/11 12:33:54;;;;;;;;;;;24.00;38.00;;;;;;8269742;28;20005;-45
2022/05/11 12:38:05;;;;;;;;;;;24.10;38.00;;;;;;8269803;28;19929;-45
2022/05/11 12:42:06;;;;;;;;;;;24.10;38.00;;;;;;8269577;28;19921;-45
2022/05/11 12:46:15;;;;;;;;;;;24.10;38.00;;;;;;8269916;28;20297;-50
2022/05/11 12:50:17;;;;;;;;;;;24.10;38.00;;;;;;8269418;28;19933;-51
2022/05/11 12:54:20;;;;;;;;;;;24.10;38.00;;;;;;8268608;28;19953;-49
2022/05/11 12:58:28;;;;;;;;;;;24.20;38.00;;;;;;8268825;28;19934;-51
2022/05/11 13:02:32;;;;;;;;;;;24.20;38.00;;;;;;8269242;28;19953;-47
2022/05/11 13:06:36;;;;;;;;;;;24.20;38.00;;;;;;8268594;28;19917;-47
2022/05/11 13:10:38;;;;;;;;;;;24.20;38.00;;;;;;8268295;28;19925;-45
2022/05/11 13:14:45;;;;;;;;;;;24.20;38.00;;;;;;8268977;28;20393;-48
2022/05/11 13:18:45;;;;;;;;;;;24.30;38.10;;;;;;8300946;28;20325;-46
2022/05/11 13:22:50;;;;;;;;;;;24.30;38.10;;;;;;8301227;28;19968;-49
2022/05/11 13:26:51;;;;;;;;;;;24.30;38.00;;;;;;8300451;28;20025;-46
2022/05/11 13:30:54;;;;;;;;;;;24.30;38.00;;;;;;8300588;28;19926;-48
2022/05/11 13:35:13;;;;;;;;;;;24.30;38.00;;;;;;8300946;28;19961;-46
2022/05/11 13:39:13;;;;;;;;;;;24.30;38.00;;;;;;8300963;28;19925;-48
2022/05/11 13:43:17;;;;;;;;;;;24.40;38.00;;;;;;8301627;28;20390;-46
2022/05/11 13:51:51;;;;;;;;;;;24.40;38.00;;;;;;8301078;28;19972;-46
2022/05/11 13:56:15;;;;;;;;;;;24.40;38.00;;;;;;8301042;28;20272;-48
2022/05/11 14:00:15;;;;;;;;;;;24.40;38.00;;;;;;8297706;28;19949;-46
2022/05/11 14:04:18;;;;;;;;;;;24.40;38.00;;;;;;8300637;28;19921;-46
2022/05/11 14:08:19;;;;;;;;;;;24.40;38.00;;;;;;8300090;28;19924;-46
2022/05/11 14:12:19;;;;;;;;;;;24.40;37.90;;;;;;8299692;28;19914;-47
2022/05/11 14:16:26;;;;;;;;;;;24.50;38.00;;;;;;8299237;28;21291;-49
2022/05/11 14:20:27;;;;;;;;;;;24.50;38.00;;;;;;8299926;28;20390;-49
2022/05/11 14:24:27;;;;;;;;;;;24.50;37.90;;;;;;8299080;28;19918;-47
2022/05/11 14:28:29;;;;;;;;;;;24.50;37.90;;;;;;8299166;28;19913;-47
2022/05/11 14:32:32;;;;;;;;;;;24.50;38.00;;;;;;8299182;28;19930;-51
2022/05/11 14:36:32;;;;;;;;;;;24.50;38.00;;;;;;8298262;28;20470;-49
2022/05/11 14:40:33;;;;;;;;;;;24.50;38.00;;;;;;8298640;28;19917;-48
2022/05/11 14:44:34;;;;;;;;;;;24.50;38.00;;;;;;8298541;28;19941;-48
2022/05/11 14:48:35;;;;;;;;;;;24.60;38.00;;;;;;8298005;28;19917;-51
2022/05/11 14:52:36;;;;;;;;;;;24.50;37.90;;;;;;8298621;28;19925;-48
2022/05/11 14:56:36;;;;;;;;;;;24.60;38.00;;;;;;8298255;28;19924;-46
2022/05/11 15:04:56;;;;;;;;;;;24.60;37.90;;;;;;8298342;28;19944;-46
2022/05/11 15:08:56;;;;;;;;;;;24.60;37.90;;;;;;8297526;28;20004;-46
2022/05/11 15:17:17;;;;;;;;;;;24.60;38.10;;;;;;8297963;28;20350;-46
2022/05/11 15:21:19;;;;;;;;;;;24.60;37.90;;;;;;8296841;28;19922;-48
2022/05/11 15:25:19;;;;;;;;;;;24.60;38.00;;;;;;8297992;28;19921;-48
2022/05/11 15:29:20;;;;;;;;;;;24.60;38.00;;;;;;8297687;28;20438;-50
2022/05/11 15:33:22;;;;;;;;;;;24.60;37.90;;;;;;8297374;28;19945;-47
2022/05/11 15:37:23;;;;;;;;;;;24.60;37.90;;;;;;8297498;28;19918;-47
2022/05/11 15:41:24;;;;;;;;;;;24.60;37.90;;;;;;8297358;28;19977;-46
2022/05/11 15:45:27;;;;;;;;;;;24.60;37.90;;;;;;8297063;28;19926;-46
2022/05/11 15:49:28;;;;;;;;;;;24.70;37.90;;;;;;8297244;28;20434;-45
2022/05/11 15:53:30;;;;;;;;;;;24.70;37.90;;;;;;8297683;28;19914;-46
2022/05/11 15:57:30;;;;;;;;;;;24.70;37.80;;;;;;8296444;28;20422;-47
2022/05/11 16:01:31;;;;;;;;;;;24.70;37.80;;;;;;8296790;28;19929;-46
2022/05/11 16:05:31;;;;;;;;;;;24.60;38.00;;;;;;8296134;28;19918;-47
2022/05/11 16:09:32;;;;;;;;;;;24.70;37.80;;;;;;8296245;28;20015;-47
2022/05/11 16:13:32;;;;;;;;;;;24.70;37.90;;;;;;8297382;28;19918;-49
2022/05/11 16:21:52;;;;;;;;;;;24.70;37.80;;;;;;8296592;28;20405;-47
2022/05/11 16:25:55;;;;;;;;;;;24.70;37.90;;;;;;8296688;28;19918;-46
2022/05/11 16:29:56;;;;;;;;;;;24.70;37.80;;;;;;8297817;28;19930;-47
2022/05/11 16:33:57;;;;;;;;;;;24.70;37.90;;;;;;8302700;28;19991;-48
2022/05/11 16:37:57;;;;;;;;;;;24.70;37.90;;;;;;8302479;28;20016;-46
2022/05/11 16:41:58;;;;;;;;;;;24.60;37.80;;;;;;8301397;28;20382;-47
2022/05/11 16:45:59;;;;;;;;;;;24.60;37.80;;;;;;8301216;28;19925;-48
2022/05/11 16:49:59;;;;;;;;;;;24.70;37.80;;;;;;8302164;28;20024;-47
2022/05/11 16:54:00;;;;;;;;;;;24.70;37.80;;;;;;8301929;28;20370;-51
2022/05/11 16:58:00;;;;;;;;;;;24.70;37.90;;;;;;8301763;28;19925;-47
2022/05/11 17:02:01;;;;;;;;;;;24.70;38.40;;;;;;8301810;28;20359;-48
2022/05/11 17:06:02;;;;;;;;;;;24.70;37.90;;;;;;8301205;28;19923;-47
2022/05/11 17:10:03;;;;;;;;;;;24.70;37.80;;;;;;8301778;28;20028;-47
2022/05/11 17:14:03;;;;;;;;;;;24.70;37.80;;;;;;8301680;28;20294;-47
2022/05/11 17:18:04;;;;;;;;;;;24.70;37.80;;;;;;8300753;28;19944;-46
2022/05/11 17:22:04;;;;;;;;;;;24.70;37.80;;;;;;8301166;28;19924;-50
2022/05/11 17:26:05;;;;;;;;;;;24.70;37.80;;;;;;8300897;28;19924;-47
2022/05/11 17:30:07;;;;;;;;;;;24.70;37.80;;;;;;8300530;28;20008;-47
2022/05/11 17:34:08;;;;;;;;;;;24.70;37.80;;;;;;8300983;28;19967;-50
2022/05/11 17:38:09;;;;;;;;;;;24.70;37.90;;;;;;8300600;28;19917;-49
2022/05/11 17:42:09;;;;;;;;;;;24.60;37.80;;;;;;8299646;28;20024;-50
2022/05/11 17:46:11;;;;;;;;;;;24.70;37.80;;;;;;8296248;28;19925;-50
2022/05/11 17:50:13;;;;;;;;;;;24.70;37.80;;;;;;8292718;28;19965;-52
2022/05/11 17:54:14;;;;;;;;;;;24.60;37.80;;;;;;8294806;28;19921;-48
2022/05/11 17:58:16;;;;;;;;;;;24.70;37.90;;;;;;8298169;28;20011;-50
2022/05/11 18:02:17;;;;;;;;;;;24.70;37.90;;;;;;8299757;28;19926;-52
2022/05/11 18:06:18;;;;;;;;;;;24.70;37.90;;;;;;8299148;28;20422;-49
2022/05/11 18:10:20;;;;;;;;;;;24.70;37.90;;;;;;8299515;28;19952;-46
2022/05/11 18:14:23;;;;;;;;;;;24.70;37.90;;;;;;8299845;28;19921;-47
2022/05/11 18:18:24;;;;;;;;;;;24.70;37.90;;;;;;8295224;28;19921;-49
2022/05/11 18:22:25;;;;;;;;;;;24.70;37.90;;;;;;8299089;28;19943;-49
2022/05/11 18:26:27;;;;;;;;;;;24.70;38.00;;;;;;8299175;28;20333;-50
2022/05/11 18:30:28;;;;;;;;;;;24.60;38.10;;;;;;8298665;28;19932;-46
2022/05/11 18:34:28;;;;;;;;;;;24.60;38.30;;;;;;8325326;28;19914;-47
2022/05/11 18:38:30;;;;;;;;;;;24.60;38.70;;;;;;8302840;28;19921;-49
2022/05/11 18:42:30;;;;;;;;;;;24.60;38.80;;;;;;8298250;28;20430;-49
2022/05/11 18:46:31;;;;;;;;;;;24.60;38.90;;;;;;8296205;28;19972;-48
2022/05/11 18:50:32;;;;;;;;;;;24.60;38.90;;;;;;8312016;28;19926;-45
2022/05/11 18:54:35;;;;;;;;;;;24.60;39.00;;;;;;8298374;28;19917;-49
2022/05/11 18:58:35;;;;;;;;;;;24.60;38.70;;;;;;8298351;28;20410;-49
2022/05/11 19:02:36;;;;;;;;;;;24.60;38.40;;;;;;8298140;28;19976;-49
2022/05/11 19:06:37;;;;;;;;;;;24.60;38.30;;;;;;8298032;28;20305;-47
2022/05/11 19:10:38;;;;;;;;;;;24.50;38.10;;;;;;8296977;28;19972;-49
2022/05/11 19:14:38;;;;;;;;;;;24.60;38.10;;;;;;8297947;28;19918;-47
2022/05/11 19:18:39;;;;;;;;;;;24.60;38.10;;;;;;8297102;28;19972;-47
2022/05/11 19:22:39;;;;;;;;;;;24.50;38.10;;;;;;8296548;28;19968;-48
2022/05/11 19:26:40;;;;;;;;;;;24.60;38.10;;;;;;8293208;28;19921;-48
2022/05/11 19:30:41;;;;;;;;;;;24.50;38.10;;;;;;8279886;28;19933;-48
2022/05/11 19:34:42;;;;;;;;;;;24.50;38.10;;;;;;8297902;28;19935;-49
2022/05/11 19:38:44;;;;;;;;;;;24.50;38.10;;;;;;8297486;28;19917;-51
2022/05/11 19:42:44;;;;;;;;;;;24.50;38.10;;;;;;8297316;28;19917;-49
2022/05/11 19:46:45;;;;;;;;;;;24.50;38.10;;;;;;8297506;28;19940;-49
2022/05/11 19:50:48;;;;;;;;;;;24.50;38.00;;;;;;8296773;28;20386;-53
2022/05/11 19:54:48;;;;;;;;;;;24.50;38.10;;;;;;8297621;28;20000;-48
2022/05/11 19:58:49;;;;;;;;;;;24.50;38.10;;;;;;8296208;28;19921;-49
2022/05/11 20:02:49;;;;;;;;;;;24.50;38.10;;;;;;8296517;28;19936;-47
2022/05/11 20:06:52;;;;;;;;;;;24.50;38.10;;;;;;8302084;28;19922;-48
2022/05/11 20:10:53;;;;;;;;;;;24.50;38.10;;;;;;8303246;28;20418;-52
2022/05/11 20:14:54;;;;;;;;;;;24.50;38.10;;;;;;8303100;28;19914;-49
2022/05/11 20:18:54;;;;;;;;;;;24.50;38.10;;;;;;8303045;28;19917;-48
2022/05/11 20:22:54;;;;;;;;;;;24.50;38.10;;;;;;8302847;28;19964;-52
2022/05/11 20:26:55;;;;;;;;;;;24.50;38.10;;;;;;8302629;28;19978;-49
2022/05/11 20:35:04;;;;;;;;;;;24.50;38.20;;;;;;8302941;28;19952;-49
2022/05/11 20:35:19;;;;;;;;;;;24.50;38.20;;;;;;8302944;28;19921;-47
2022/05/11 20:39:20;;;;;;;;;;;24.50;38.20;;;;;;8302075;28;19921;-46
2022/05/11 20:43:20;;;;;;;;;;;24.40;38.10;;;;;;8302337;28;19924;-48
2022/05/11 20:47:21;;;;;;;;;;;24.40;38.20;;;;;;8302161;28;19917;-49
2022/05/11 20:51:21;;;;;;;;;;;24.40;38.10;;;;;;8301485;28;20343;-50
2022/05/11 20:55:25;;;;;;;;;;;24.40;38.20;;;;;;8302559;28;20385;-49
2022/05/11 20:59:26;;;;;;;;;;;24.40;38.20;;;;;;8301721;28;19918;-48
2022/05/11 21:03:26;;;;;;;;;;;24.40;38.20;;;;;;8301321;28;20011;-47
2022/05/11 21:07:27;;;;;;;;;;;24.40;38.20;;;;;;8301811;28;19914;-49
2022/05/11 21:11:27;;;;;;;;;;;24.30;38.10;;;;;;8301289;28;20399;-51
2022/05/11 21:15:28;;;;;;;;;;;24.40;38.20;;;;;;8300793;28;19914;-47
2022/05/11 21:19:28;;;;;;;;;;;24.40;38.20;;;;;;8301024;28;20051;-48
2022/05/11 21:23:29;;;;;;;;;;;24.30;38.10;;;;;;8301033;28;20382;-46
2022/05/11 21:27:30;;;;;;;;;;;24.30;38.20;;;;;;8300506;28;19964;-46
2022/05/11 21:31:30;;;;;;;;;;;24.30;38.10;;;;;;8300949;28;19941;-48
2022/05/11 21:35:32;;;;;;;;;;;24.30;38.10;;;;;;8300279;28;19922;-49
2022/05/11 21:39:32;;;;;;;;;;;24.30;38.10;;;;;;8300050;28;20182;-49
2022/05/11 21:43:33;;;;;;;;;;;24.30;38.10;;;;;;8300344;28;20432;-47
2022/05/11 21:47:33;;;;;;;;;;;24.30;38.10;;;;;;8300574;28;20012;-50
2022/05/11 21:51:34;;;;;;;;;;;24.30;38.10;;;;;;8299753;28;20333;-52
2022/05/11 21:55:35;;;;;;;;;;;24.30;38.10;;;;;;8300246;28;19918;-49
2022/05/11 21:59:35;;;;;;;;;;;24.30;38.10;;;;;;8299783;28;20375;-49
2022/05/11 22:03:36;;;;;;;;;;;24.30;38.10;;;;;;8297596;28;19929;-51
2022/05/11 22:07:36;;;;;;;;;;;24.30;38.10;;;;;;8299633;28;19914;-49
2022/05/11 22:11:37;;;;;;;;;;;24.30;38.10;;;;;;8299603;28;19929;-47
2022/05/11 22:15:38;;;;;;;;;;;24.30;38.10;;;;;;8299355;28;19933;-47
2022/05/11 22:19:38;;;;;;;;;;;24.30;38.10;;;;;;8299338;28;19925;-47
2022/05/11 22:23:39;;;;;;;;;;;24.20;38.00;;;;;;8299284;28;19918;-47
2022/05/11 22:27:43;;;;;;;;;;;24.30;38.10;;;;;;8298573;28;19922;-46
2022/05/11 22:31:45;;;;;;;;;;;24.20;38.60;;;;;;8298786;28;19921;-47
2022/05/11 22:35:47;;;;;;;;;;;24.20;38.10;;;;;;8298725;28;20004;-50
2022/05/11 22:39:48;;;;;;;;;;;24.20;38.10;;;;;;8298913;28;19918;-46
2022/05/11 22:43:48;;;;;;;;;;;24.20;38.00;;;;;;8298569;28;19918;-47
2022/05/11 22:47:49;;;;;;;;;;;24.20;38.10;;;;;;8298195;28;19913;-47
2022/05/11 22:51:49;;;;;;;;;;;24.20;38.10;;;;;;8298636;28;19933;-47
2022/05/11 22:55:50;;;;;;;;;;;24.10;38.00;;;;;;8298853;28;19921;-47
2022/05/11 22:59:51;;;;;;;;;;;24.20;38.60;;;;;;8297825;28;20299;-47
2022/05/11 23:03:51;;;;;;;;;;;24.10;38.00;;;;;;8298534;28;19929;-50
2022/05/11 23:07:52;;;;;;;;;;;24.10;38.00;;;;;;8298024;28;19920;-50
2022/05/11 23:11:52;;;;;;;;;;;24.10;38.00;;;;;;8297394;28;20016;-50
2022/05/11 23:15:53;;;;;;;;;;;24.10;38.00;;;;;;8298424;28;19918;-50
2022/05/11 23:19:53;;;;;;;;;;;24.10;38.00;;;;;;8298079;28;20288;-50
2022/05/11 23:23:54;;;;;;;;;;;24.10;38.00;;;;;;8297497;28;20260;-49
2022/05/11 23:27:55;;;;;;;;;;;24.10;38.00;;;;;;8297660;28;19920;-51
2022/05/11 23:31:56;;;;;;;;;;;24.10;38.10;;;;;;8297812;28;19932;-49
2022/05/11 23:35:57;;;;;;;;;;;24.10;38.00;;;;;;8297388;28;19960;-47
2022/05/11 23:39:57;;;;;;;;;;;24.10;38.10;;;;;;8299359;28;20008;-47
2022/05/11 23:43:58;;;;;;;;;;;24.10;38.00;;;;;;8304134;28;19918;-46
2022/05/11 23:47:58;;;;;;;;;;;24.10;38.10;;;;;;8303501;28;20401;-46
2022/05/11 23:52:03;;;;;;;;;;;24.10;38.20;;;;;;8304093;28;19984;-47
2022/05/11 23:56:04;;;;;;;;;;;24.00;38.10;;;;;;8303916;28;19947;-51
